• Join FlightAware (Why Join?)
  • Login
  • US Flag 
07:32PM EDT


 

Airport Tracker/Info


-or-


 

Live Flight TrackerFlight Track Log ✈ WIG7117 ✈ 12-Jun-2013 ✈ KALB - KSYR

Flight Track Log - Related Links

Times and Time Zones

All times are in EDT time to prevent confusion due to time zone crossing. See the WIG7117 flight status page for this flight to view local times or setup timezone preferences in your user account.

Time Position Orientation Groundspeed Altitude Reporting Facility
EDT Latitude Longitude Course Direction KTS MPH feet Rate Location/Type
10:20PM 42.7528 -73.8086 359° North 83 96 900  Level Boston Center
10:20PM 42.7714 -73.8092 359° North 85 98 1,900 1,140 Climbing Boston Center
10:21PM 42.7794 -73.8403 289° West 91 105 3,000 1,020 Climbing Boston Center
10:22PM 42.7872 -73.8800 285° West 116 133 4,000 960 Climbing Boston Center
10:24PM 42.7950 -73.9256 283° West 118 136 5,000 900 Climbing Boston Center
10:25PM 42.8008 -73.9681 281° West 121 139 5,900 900 Climbing Boston Center
10:26PM 42.8083 -74.0136 283° West 124 143 6,900 960 Climbing Boston Center
10:27PM 42.8161 -74.0675 281° West 132 152 7,900 540 Climbing Boston Center
10:28PM 42.8258 -74.1189 284° West 145 167 8,000  Climbing Boston Center
10:29PM 42.8331 -74.1786 279° West 155 178 8,000  Level Boston Center
10:30PM 42.8428 -74.2325 284° West 150 173 8,000  Level Boston Center
10:31PM 42.8503 -74.2867 281° West 148 170 8,000  Level Boston Center
10:31PM 42.8578 -74.3322 283° West 147 169 8,000  Level Boston Center
10:32PM 42.8653 -74.3889 280° West 146 168 8,000  Level Boston Center
10:33PM 42.8725 -74.4431 280° West 145 167 8,000  Level Boston Center
10:34PM 42.8842 -74.4972 286° West 146 168 8,000  Level Boston Center
10:35PM 42.8914 -74.5542 280° West 147 169 8,000  Level Boston Center
10:36PM 42.8967 -74.6083 278° West 145 167 8,000  Level Boston Center
10:37PM 42.9061 -74.6625 283° West 145 167 8,000  Level Boston Center
10:38PM 42.9133 -74.7167 280° West 147 169 8,000  Level Boston Center
10:39PM 42.9225 -74.7708 283° West 144 166 8,000  Level Boston Center
10:41PM 42.9297 -74.8250 280° West 142 163 8,000  Level Boston Center
10:42PM 42.9372 -74.8733 282° West 140 161 8,000  Level Boston Center
10:43PM 42.9442 -74.9278 280° West 141 162 8,000  Level Boston Center
10:44PM 42.9536 -74.9819 283° West 142 163 8,000  Level Boston Center
10:45PM 42.9606 -75.0361 280° West 142 163 8,000  Level Boston Center
10:46PM 42.9697 -75.0875 284° West 142 163 8,000  Level Boston Center
10:47PM 42.9769 -75.1419 280° West 142 163 8,000  Level Boston Center
10:48PM 42.9842 -75.1933 281° West 144 166 8,000  Level Boston Center
10:49PM 42.9911 -75.2475 280° West 144 166 8,000  Level Boston Center
10:50PM 43.0000 -75.3019 283° West 144 166 8,000  Level Boston Center
10:51PM 43.0092 -75.3564 283° West 147 169 8,000  Level Boston Center
10:52PM 43.0158 -75.4161 279° West 147 169 8,000  Level Boston Center
10:53PM 43.0228 -75.4706 280° West 147 169 8,000 -300 Level Boston Center
10:54PM 43.0317 -75.5278 282° West 156 180 7,400 -600 Descending Boston Center
10:55PM 43.0406 -75.5878 281° West 163 188 6,900 -540 Descending Boston Center
10:56PM 43.0472 -75.6481 279° West 161 185 6,400 -600 Descending Boston Center
10:57PM 43.0558 -75.7081 281° West 160 184 5,800 -600 Descending Boston Center
10:58PM 43.0603 -75.7708 276° West 167 192 5,200 -420 Descending Boston Center
10:59PM 43.0606 -75.8333 270° West 164 189 5,000 -120 Descending Boston Center
11:00PM 43.0608 -75.8931 270° West 151 174 5,000 -120 Level Boston Center
11:01PM 43.0611 -75.9528 270° West 150 173 4,800 -540 Descending Boston Center
11:02PM 43.0572 -76.0122 265° West 166 191 4,000 -420 Descending Boston Center
11:03PM 43.0492 -76.0686 259° West 152 175 4,000 -60 Level Boston Center
11:04PM 43.0456 -76.1197 264° West 123 142 3,900 -720 Descending Boston Center
11:05PM 43.0583 -76.1717 289° West 163 188 2,600 -1,260 Descending Boston Center
11:06PM 43.1019 -76.1800 352° North 148 170 1,400 -1,200 Descending Boston Center
11:08PM 43.1000 -76.1000 10° North  Level FlightAware Approximate
11:15PM 43.1112 -76.1063 10° North  Level Estimated
11:16PM 43.1112 -76.1063 10° North  Level Estimated
11:17PM 43.1112 -76.1063 10° North  Level Estimated
11:18PM 43.1112 -76.1063 10° North  Level Estimated
11:19PM 43.1112 -76.1063 10° North  Level Estimated
11:20PM 43.1112 -76.1063 10° North  Level Estimated
11:21PM 43.1112 -76.1063 10° North  Level Estimated